Time;durP1;ratioP1;P1;durP2;ratioP2;P2;SDS_P1;SDS_P2;PMS_P1;PMS_P2;Temp;Humidity;BMP_temperature;BMP_pressure;BME280_temperature;BME280_humidity;BME280_pressure;Samples;Min_cycle;Max_cycle;Signal;HPM_P1;HPM_P2
2021/05/28 00:02:01;;;;;;;;;22.00;21.25;;;;;;;;3723906;38;21109;-57
2021/05/28 00:04:27;;;;;;;;;19.00;18.00;;;;;;;;3724275;37;17975;-58
2021/05/28 00:06:54;;;;;;;;;17.00;17.00;;;;;;;;3724555;38;17929;-56
2021/05/28 00:09:20;;;;;;;;;22.75;21.50;;;;;;;;3724375;38;21087;-56
2021/05/28 00:11:47;;;;;;;;;19.25;19.25;;;;;;;;3724469;37;17958;-58
2021/05/28 00:14:13;;;;;;;;;20.25;20.25;;;;;;;;3724490;37;17962;-56
2021/05/28 00:16:41;;;;;;;;;16.75;14.50;;;;;;;;3724460;37;21058;-57
2021/05/28 00:19:07;;;;;;;;;20.50;19.75;;;;;;;;3724376;37;21075;-57
2021/05/28 00:21:34;;;;;;;;;19.50;19.50;;;;;;;;3724222;38;21059;-57
2021/05/28 00:24:00;;;;;;;;;14.50;14.50;;;;;;;;3724082;37;21062;-56
2021/05/28 00:26:26;;;;;;;;;19.50;19.25;;;;;;;;3724449;38;21024;-56
2021/05/28 00:28:52;;;;;;;;;20.75;19.00;;;;;;;;3724500;38;17916;-56
2021/05/28 00:31:19;;;;;;;;;17.75;17.75;;;;;;;;3724452;38;17910;-58
2021/05/28 00:33:45;;;;;;;;;16.50;16.25;;;;;;;;3724533;38;21072;-57
2021/05/28 00:36:11;;;;;;;;;22.25;21.75;;;;;;;;3724408;37;21023;-58
2021/05/28 00:38:37;;;;;;;;;25.00;23.00;;;;;;;;3724359;38;21021;-57
2021/05/28 00:41:04;;;;;;;;;19.25;19.25;;;;;;;;3724452;38;17919;-55
2021/05/28 00:43:33;;;;;;;;;21.00;20.00;;;;;;;;3724133;38;17896;-56
2021/05/28 00:46:00;;;;;;;;;19.50;19.50;;;;;;;;3724374;38;21033;-57
2021/05/28 00:48:27;;;;;;;;;19.50;18.75;;;;;;;;3724077;38;21001;-55
2021/05/28 00:50:52;;;;;;;;;21.75;21.00;;;;;;;;3724345;38;21054;-56
2021/05/28 00:53:19;;;;;;;;;17.50;17.50;;;;;;;;3724445;37;20995;-57
2021/05/28 00:55:45;;;;;;;;;21.00;19.75;;;;;;;;3724547;37;17867;-55
2021/05/28 00:58:11;;;;;;;;;20.50;19.50;;;;;;;;3724443;38;20999;-56
2021/05/28 01:00:38;;;;;;;;;18.00;18.00;;;;;;;;3724570;37;20985;-56
2021/05/28 01:03:05;;;;;;;;;21.50;20.50;;;;;;;;3723986;37;21003;-56
2021/05/28 01:05:32;;;;;;;;;21.75;21.25;;;;;;;;3724522;38;20984;-56
2021/05/28 01:07:58;;;;;;;;;20.50;20.50;;;;;;;;3724662;38;17890;-56
2021/05/28 01:10:24;;;;;;;;;21.50;21.25;;;;;;;;3724453;37;20980;-56
2021/05/28 01:12:50;;;;;;;;;18.00;18.00;;;;;;;;3724595;37;17885;-56
2021/05/28 01:15:18;;;;;;;;;17.75;16.75;;;;;;;;3724689;38;20991;-56
2021/05/28 01:17:44;;;;;;;;;18.75;17.50;;;;;;;;3724283;37;17869;-57
2021/05/28 01:20:10;;;;;;;;;18.75;18.75;;;;;;;;3724562;38;20956;-56
2021/05/28 01:22:39;;;;;;;;;21.00;20.75;;;;;;;;3724560;38;17847;-56
2021/05/28 01:25:06;;;;;;;;;20.25;20.25;;;;;;;;3724545;37;20940;-56
2021/05/28 01:27:32;;;;;;;;;16.75;16.75;;;;;;;;3724544;38;17851;-56
2021/05/28 01:29:59;;;;;;;;;18.50;18.50;;;;;;;;3724627;38;20956;-56
2021/05/28 01:32:25;;;;;;;;;17.25;17.25;;;;;;;;3724206;38;20966;-55
2021/05/28 01:34:51;;;;;;;;;19.25;18.50;;;;;;;;3724833;38;17829;-56
2021/05/28 01:37:17;;;;;;;;;17.00;17.00;;;;;;;;3724343;37;17823;-56
2021/05/28 01:39:44;;;;;;;;;19.75;18.75;;;;;;;;3724695;38;17814;-57
2021/05/28 01:42:10;;;;;;;;;18.25;18.25;;;;;;;;3724712;38;17822;-56
2021/05/28 01:44:36;;;;;;;;;18.25;18.25;;;;;;;;3724646;37;20951;-55
2021/05/28 01:47:03;;;;;;;;;17.50;16.75;;;;;;;;3724611;37;20936;-56
2021/05/28 01:49:39;;;;;;;;;14.00;14.00;;;;;;;;3724128;37;20928;-56
2021/05/28 01:52:05;;;;;;;;;19.75;19.75;;;;;;;;3724171;38;20953;-55
2021/05/28 01:54:32;;;;;;;;;18.25;17.25;;;;;;;;3724424;38;21114;-56
2021/05/28 01:56:58;;;;;;;;;17.75;17.75;;;;;;;;3724450;38;20917;-55
2021/05/28 01:59:25;;;;;;;;;18.00;17.75;;;;;;;;3724462;38;20899;-56
2021/05/28 02:01:54;;;;;;;;;17.75;17.50;;;;;;;;3724660;37;17817;-56
2021/05/28 02:04:22;;;;;;;;;19.00;19.00;;;;;;;;3724633;37;20902;-57
2021/05/28 02:06:49;;;;;;;;;17.75;17.75;;;;;;;;3724700;37;20946;-57
2021/05/28 02:09:16;;;;;;;;;17.25;17.25;;;;;;;;3724663;38;20911;-56
2021/05/28 02:11:43;;;;;;;;;17.75;17.75;;;;;;;;3724589;38;20897;-57
2021/05/28 02:14:11;;;;;;;;;18.00;16.25;;;;;;;;3724273;37;20885;-55
2021/05/28 02:16:37;;;;;;;;;15.25;14.75;;;;;;;;3724229;38;20910;-56
2021/05/28 02:19:04;;;;;;;;;16.25;16.25;;;;;;;;3724570;38;20916;-56
2021/05/28 02:21:31;;;;;;;;;90.75;86.00;;;;;;;;3724441;37;20896;-57
2021/05/28 02:23:57;;;;;;;;;48.25;40.50;;;;;;;;3724610;37;17752;-56
2021/05/28 02:26:23;;;;;;;;;26.25;25.00;;;;;;;;3724521;38;20938;-56
2021/05/28 02:28:50;;;;;;;;;22.00;22.00;;;;;;;;3724590;37;20827;-56
2021/05/28 02:31:16;;;;;;;;;17.75;17.25;;;;;;;;3724265;37;17745;-56
2021/05/28 02:33:42;;;;;;;;;18.25;17.50;;;;;;;;3724617;37;20872;-57
2021/05/28 02:36:09;;;;;;;;;17.25;17.25;;;;;;;;3724777;37;17746;-56
2021/05/28 02:38:35;;;;;;;;;22.50;19.25;;;;;;;;3724746;38;20908;-55
2021/05/28 02:41:01;;;;;;;;;49.25;41.75;;;;;;;;3724579;37;20902;-57
2021/05/28 02:43:28;;;;;;;;;24.50;23.00;;;;;;;;3724591;38;20813;-57
2021/05/28 02:45:56;;;;;;;;;16.50;16.25;;;;;;;;3724525;37;17730;-56
2021/05/28 02:48:22;;;;;;;;;21.50;21.25;;;;;;;;3724146;37;20852;-57
2021/05/28 02:50:52;;;;;;;;;19.00;18.00;;;;;;;;3724658;38;20842;-57
2021/05/28 02:53:18;;;;;;;;;17.75;16.75;;;;;;;;3724570;37;20864;-55
2021/05/28 02:55:45;;;;;;;;;16.50;16.50;;;;;;;;3724678;37;17727;-56
2021/05/28 02:58:12;;;;;;;;;19.00;18.75;;;;;;;;3724643;38;20850;-56
2021/05/28 03:00:40;;;;;;;;;73.50;61.75;;;;;;;;3724727;38;20822;-57
2021/05/28 03:03:06;;;;;;;;;24.25;22.75;;;;;;;;3724412;37;20898;-56
2021/05/28 03:05:32;;;;;;;;;22.75;21.75;;;;;;;;3724930;37;20825;-58
2021/05/28 03:07:59;;;;;;;;;19.25;19.25;;;;;;;;3725233;37;17689;-57
2021/05/28 03:10:25;;;;;;;;;20.00;18.50;;;;;;;;3724861;38;17722;-58
2021/05/28 03:12:54;;;;;;;;;19.75;19.75;;;;;;;;3725090;38;20837;-57
2021/05/28 03:15:21;;;;;;;;;18.00;17.00;;;;;;;;3724980;37;20818;-56
2021/05/28 03:17:48;;;;;;;;;17.25;17.25;;;;;;;;3724702;38;20802;-56
2021/05/28 03:20:21;;;;;;;;;19.50;18.50;;;;;;;;3724730;38;20830;-56
2021/05/28 03:22:48;;;;;;;;;20.25;19.50;;;;;;;;3724697;37;20802;-56
2021/05/28 03:25:14;;;;;;;;;20.25;20.25;;;;;;;;3724643;38;20844;-57
2021/05/28 03:27:43;;;;;;;;;19.25;19.00;;;;;;;;3724672;37;20835;-57
2021/05/28 03:30:10;;;;;;;;;21.00;19.00;;;;;;;;3724671;38;21018;-57
2021/05/28 03:32:36;;;;;;;;;16.25;16.25;;;;;;;;3724559;38;20977;-56
2021/05/28 03:35:03;;;;;;;;;19.25;18.00;;;;;;;;3724690;38;20831;-56
2021/05/28 03:37:29;;;;;;;;;15.25;15.25;;;;;;;;3724770;38;20849;-57
2021/05/28 03:39:55;;;;;;;;;14.25;11.75;;;;;;;;3724174;37;20981;-57
2021/05/28 03:42:21;;;;;;;;;20.50;19.25;;;;;;;;3724506;37;21753;-58
2021/05/28 03:44:47;;;;;;;;;19.50;19.50;;;;;;;;3724598;37;18649;-56
2021/05/28 03:47:15;;;;;;;;;18.00;18.00;;;;;;;;3724613;37;18646;-57
2021/05/28 03:49:42;;;;;;;;;19.00;19.00;;;;;;;;3724788;37;20787;-57
2021/05/28 03:52:09;;;;;;;;;19.25;18.25;;;;;;;;3724609;37;20776;-57
2021/05/28 03:54:35;;;;;;;;;19.75;19.75;;;;;;;;3724660;37;20820;-58
2021/05/28 03:57:02;;;;;;;;;19.75;18.75;;;;;;;;3724834;37;20772;-57
2021/05/28 03:59:29;;;;;;;;;15.00;15.00;;;;;;;;3724753;37;21771;-57
2021/05/28 04:01:55;;;;;;;;;18.00;18.00;;;;;;;;3724700;38;21781;-57
2021/05/28 04:04:22;;;;;;;;;14.75;14.75;;;;;;;;3724847;37;21769;-57
2021/05/28 04:06:48;;;;;;;;;18.25;17.25;;;;;;;;3724288;38;21756;-57
2021/05/28 04:09:14;;;;;;;;;19.75;18.75;;;;;;;;3724583;38;21736;-57
2021/05/28 04:11:40;;;;;;;;;18.75;18.75;;;;;;;;3724740;38;18622;-56
2021/05/28 04:14:06;;;;;;;;;20.00;20.00;;;;;;;;3724521;38;18639;-57
2021/05/28 04:16:32;;;;;;;;;20.50;19.25;;;;;;;;3724706;37;18597;-56
2021/05/28 04:19:03;;;;;;;;;19.25;19.25;;;;;;;;3724928;38;18617;-57
2021/05/28 04:21:30;;;;;;;;;18.50;17.75;;;;;;;;3724577;37;21725;-56
2021/05/28 04:23:57;;;;;;;;;17.75;17.25;;;;;;;;3724591;37;21742;-56
2021/05/28 04:26:23;;;;;;;;;20.25;19.75;;;;;;;;3724630;38;21718;-57
2021/05/28 04:28:49;;;;;;;;;19.75;18.25;;;;;;;;3724511;37;21734;-57
2021/05/28 04:31:19;;;;;;;;;22.00;20.25;;;;;;;;3724775;37;18582;-56
2021/05/28 04:33:45;;;;;;;;;17.25;16.75;;;;;;;;3724683;37;18583;-55
2021/05/28 04:36:11;;;;;;;;;18.00;18.00;;;;;;;;3724680;37;21923;-56
2021/05/28 04:38:37;;;;;;;;;18.75;18.75;;;;;;;;3724565;38;18611;-56
2021/05/28 04:41:04;;;;;;;;;18.25;18.25;;;;;;;;3724511;37;18600;-61
2021/05/28 04:43:30;;;;;;;;;21.75;21.00;;;;;;;;3724513;38;21740;-58
2021/05/28 04:45:56;;;;;;;;;15.25;15.00;;;;;;;;3724469;38;21724;-59
2021/05/28 04:48:22;;;;;;;;;20.50;20.50;;;;;;;;3724706;37;18579;-57
2021/05/28 04:50:49;;;;;;;;;30.00;29.75;;;;;;;;3724458;38;21736;-57
2021/05/28 04:53:15;;;;;;;;;22.00;21.50;;;;;;;;3724669;38;18578;-55
2021/05/28 04:55:42;;;;;;;;;22.75;21.00;;;;;;;;3724668;37;21701;-55
2021/05/28 04:58:09;;;;;;;;;25.25;24.25;;;;;;;;3724694;37;18573;-58
2021/05/28 05:00:35;;;;;;;;;21.00;19.50;;;;;;;;3724593;37;21733;-57
2021/05/28 05:03:02;;;;;;;;;41.25;36.00;;;;;;;;3724553;37;21660;-59
2021/05/28 05:05:28;;;;;;;;;14.75;14.00;;;;;;;;3724605;38;21646;-57
2021/05/28 05:07:54;;;;;;;;;19.25;19.25;;;;;;;;3724473;38;21674;-57
2021/05/28 05:10:20;;;;;;;;;22.50;21.50;;;;;;;;3724644;37;18529;-57
2021/05/28 05:12:47;;;;;;;;;22.00;21.25;;;;;;;;3724619;37;18553;-57
2021/05/28 05:15:15;;;;;;;;;23.00;22.00;;;;;;;;3724810;37;18545;-59
2021/05/28 05:17:41;;;;;;;;;21.25;21.00;;;;;;;;3724757;37;21657;-57
2021/05/28 05:20:09;;;;;;;;;18.50;18.50;;;;;;;;3724679;37;21691;-57
2021/05/28 05:22:35;;;;;;;;;22.50;22.00;;;;;;;;3724642;37;21642;-57
2021/05/28 05:25:01;;;;;;;;;20.25;20.25;;;;;;;;3724225;37;21642;-56
2021/05/28 05:27:28;;;;;;;;;27.50;27.50;;;;;;;;3724443;38;21665;-56
2021/05/28 05:29:54;;;;;;;;;19.00;18.75;;;;;;;;3724517;38;21605;-57
2021/05/28 05:32:20;;;;;;;;;20.75;19.25;;;;;;;;3724684;38;21633;-56
2021/05/28 05:34:47;;;;;;;;;24.00;24.00;;;;;;;;3724386;37;21662;-57
2021/05/28 05:37:13;;;;;;;;;25.50;25.00;;;;;;;;3724648;38;18504;-59
2021/05/28 05:39:39;;;;;;;;;18.25;17.00;;;;;;;;3724282;37;21638;-58
2021/05/28 05:42:06;;;;;;;;;14.00;14.00;;;;;;;;3724732;37;18506;-57
2021/05/28 05:44:32;;;;;;;;;18.25;17.50;;;;;;;;3724714;37;21781;-57
2021/05/28 05:46:58;;;;;;;;;20.00;19.75;;;;;;;;3724721;37;21609;-56
2021/05/28 05:49:25;;;;;;;;;17.50;17.00;;;;;;;;3724997;37;21588;-57
2021/05/28 05:51:52;;;;;;;;;19.50;19.50;;;;;;;;3725000;37;18499;-56
2021/05/28 05:54:18;;;;;;;;;19.75;18.75;;;;;;;;3724797;38;21625;-56
2021/05/28 05:56:45;;;;;;;;;17.25;17.25;;;;;;;;3724879;38;21601;-57
2021/05/28 05:59:11;;;;;;;;;17.00;17.00;;;;;;;;3724910;37;21610;-56
2021/05/28 06:01:37;;;;;;;;;20.25;19.00;;;;;;;;3724967;37;21593;-55
2021/05/28 06:04:03;;;;;;;;;17.00;17.00;;;;;;;;3724805;38;18471;-56
2021/05/28 06:06:30;;;;;;;;;29.25;28.25;;;;;;;;3724895;37;21655;-59
2021/05/28 06:08:56;;;;;;;;;21.00;20.25;;;;;;;;3724719;38;21546;-57
2021/05/28 06:11:23;;;;;;;;;23.00;21.75;;;;;;;;3724613;37;21626;-58
2021/05/28 06:13:49;;;;;;;;;24.25;23.25;;;;;;;;3724812;38;21553;-56
2021/05/28 06:16:16;;;;;;;;;20.75;20.75;;;;;;;;3724573;37;18457;-56
2021/05/28 06:18:43;;;;;;;;;17.00;16.50;;;;;;;;3724622;37;21551;-59
2021/05/28 06:21:10;;;;;;;;;14.75;14.00;;;;;;;;3724750;38;21782;-56
2021/05/28 06:23:36;;;;;;;;;16.00;16.00;;;;;;;;3724413;37;21742;-58
2021/05/28 06:26:02;;;;;;;;;16.50;16.00;;;;;;;;3724718;37;21766;-57
2021/05/28 06:28:28;;;;;;;;;14.75;14.75;;;;;;;;3724687;37;21577;-57
2021/05/28 06:30:56;;;;;;;;;15.50;15.50;;;;;;;;3724692;38;18461;-57
2021/05/28 06:33:22;;;;;;;;;14.00;14.00;;;;;;;;3724675;38;21757;-57
2021/05/28 06:35:48;;;;;;;;;17.00;16.25;;;;;;;;3724799;37;21445;-56
2021/05/28 06:38:14;;;;;;;;;13.50;12.75;;;;;;;;3724599;37;21731;-56
2021/05/28 06:40:40;;;;;;;;;15.50;15.25;;;;;;;;3724709;37;21735;-57
2021/05/28 06:43:07;;;;;;;;;13.25;13.25;;;;;;;;3724969;38;18443;-58
2021/05/28 06:45:35;;;;;;;;;17.75;16.75;;;;;;;;3724887;37;21729;-58
2021/05/28 06:48:01;;;;;;;;;14.75;14.75;;;;;;;;3724731;38;21728;-57
2021/05/28 06:50:31;;;;;;;;;16.00;15.50;;;;;;;;3724872;37;21724;-58
2021/05/28 06:52:58;;;;;;;;;21.00;19.00;;;;;;;;3724825;37;21721;-58
2021/05/28 06:55:24;;;;;;;;;15.75;15.25;;;;;;;;3724583;38;21565;-59
2021/05/28 06:57:50;;;;;;;;;20.25;19.75;;;;;;;;3724846;37;21691;-61
2021/05/28 07:00:17;;;;;;;;;22.75;21.00;;;;;;;;3725064;38;21508;-63
2021/05/28 07:02:43;;;;;;;;;23.00;22.50;;;;;;;;3724741;38;21492;-63
2021/05/28 07:05:09;;;;;;;;;17.75;17.75;;;;;;;;3724588;37;21538;-58
2021/05/28 07:07:35;;;;;;;;;21.50;20.25;;;;;;;;3724672;38;18364;-56
2021/05/28 07:10:01;;;;;;;;;18.50;17.50;;;;;;;;3724691;38;21504;-56
2021/05/28 07:12:28;;;;;;;;;19.50;19.50;;;;;;;;3724486;37;18359;-57
2021/05/28 07:14:54;;;;;;;;;21.00;20.00;;;;;;;;3724479;37;21487;-57
2021/05/28 07:17:20;;;;;;;;;19.25;19.25;;;;;;;;3724805;37;18371;-58
2021/05/28 07:19:47;;;;;;;;;15.50;14.75;;;;;;;;3724664;38;18373;-55
2021/05/28 07:22:13;;;;;;;;;17.00;16.25;;;;;;;;3724518;37;21454;-57
2021/05/28 07:24:39;;;;;;;;;10.75;10.75;;;;;;;;3724737;37;18345;-57
2021/05/28 07:27:05;;;;;;;;;13.00;12.00;;;;;;;;3724701;38;18345;-56
2021/05/28 07:29:31;;;;;;;;;15.25;14.50;;;;;;;;3724703;38;18363;-59
2021/05/28 07:31:57;;;;;;;;;13.50;13.00;;;;;;;;3724664;37;21664;-57
2021/05/28 07:34:23;;;;;;;;;13.25;12.50;;;;;;;;3724782;38;18345;-57
2021/05/28 07:36:50;;;;;;;;;11.00;11.00;;;;;;;;3724920;37;18348;-58
2021/05/28 07:39:16;;;;;;;;;11.00;11.00;;;;;;;;3724594;37;18349;-57
2021/05/28 07:41:42;;;;;;;;;9.25;9.25;;;;;;;;3724695;38;21666;-58
2021/05/28 07:44:08;;;;;;;;;12.25;11.75;;;;;;;;3724904;37;18335;-57
2021/05/28 07:46:40;;;;;;;;;11.25;11.25;;;;;;;;3724865;37;18339;-56
2021/05/28 07:49:06;;;;;;;;;13.00;13.00;;;;;;;;3724767;38;18332;-57
2021/05/28 07:51:34;;;;;;;;;12.00;12.00;;;;;;;;3724672;37;21652;-57
2021/05/28 07:54:00;;;;;;;;;9.75;9.75;;;;;;;;3724614;38;21622;-56
2021/05/28 07:56:26;;;;;;;;;13.25;13.00;;;;;;;;3724665;38;21419;-58
2021/05/28 07:58:52;;;;;;;;;14.50;14.50;;;;;;;;3724733;37;21626;-58
2021/05/28 08:01:19;;;;;;;;;12.25;12.25;;;;;;;;3724669;37;18307;-55
2021/05/28 08:03:45;;;;;;;;;20.25;19.75;;;;;;;;3724569;38;21619;-56
2021/05/28 08:06:11;;;;;;;;;13.00;12.00;;;;;;;;3724679;38;18301;-55
2021/05/28 08:08:37;;;;;;;;;10.50;10.50;;;;;;;;3724672;37;18297;-57
2021/05/28 08:11:03;;;;;;;;;18.00;17.50;;;;;;;;3724585;37;18288;-57
2021/05/28 08:13:29;;;;;;;;;11.25;11.00;;;;;;;;3724729;37;18305;-55
2021/05/28 08:15:56;;;;;;;;;12.00;11.25;;;;;;;;3724736;37;18308;-57
2021/05/28 08:18:23;;;;;;;;;9.25;9.25;;;;;;;;3724675;37;21425;-57
2021/05/28 08:20:49;;;;;;;;;14.00;14.00;;;;;;;;3724508;37;21337;-58
2021/05/28 08:23:15;;;;;;;;;11.00;11.00;;;;;;;;3724717;38;21440;-57
2021/05/28 08:25:41;;;;;;;;;14.00;14.00;;;;;;;;3724886;37;18288;-56
2021/05/28 08:28:07;;;;;;;;;12.00;12.00;;;;;;;;3724651;38;21571;-55
2021/05/28 08:30:33;;;;;;;;;14.25;14.25;;;;;;;;3724870;38;21566;-58
2021/05/28 08:32:59;;;;;;;;;15.50;15.50;;;;;;;;3724883;37;18278;-58
2021/05/28 08:35:25;;;;;;;;;15.50;15.00;;;;;;;;3724839;37;21332;-57
2021/05/28 08:37:51;;;;;;;;;16.00;16.00;;;;;;;;3725087;38;21367;-56
2021/05/28 08:40:17;;;;;;;;;14.50;14.50;;;;;;;;3725196;37;18255;-57
2021/05/28 08:42:45;;;;;;;;;13.50;13.50;;;;;;;;3724972;37;18241;-56
2021/05/28 08:45:15;;;;;;;;;16.75;16.75;;;;;;;;3724679;38;21490;-56
2021/05/28 08:47:41;;;;;;;;;17.50;17.50;;;;;;;;3724921;38;21395;-58
2021/05/28 08:50:08;;;;;;;;;14.75;14.75;;;;;;;;3725075;38;18231;-59
2021/05/28 08:52:34;;;;;;;;;18.25;17.50;;;;;;;;3724959;38;21483;-56
2021/05/28 08:55:00;;;;;;;;;17.50;17.25;;;;;;;;3725066;37;21358;-58
2021/05/28 08:57:27;;;;;;;;;15.25;14.00;;;;;;;;3724848;37;21363;-57
2021/05/28 08:59:53;;;;;;;;;17.75;17.75;;;;;;;;3724967;37;21370;-56
2021/05/28 09:02:35;;;;;;;;;15.00;15.00;;;;;;;;3724908;37;21549;-57
2021/05/28 09:05:31;;;;;;;;;16.50;16.25;;;;;;;;3725500;38;21551;-57
2021/05/28 09:08:01;;;;;;;;;16.25;16.25;;;;;;;;3724976;38;21346;-58
2021/05/28 09:10:36;;;;;;;;;17.50;16.75;;;;;;;;3725045;37;21361;-57
2021/05/28 09:13:12;;;;;;;;;15.75;15.25;;;;;;;;3725720;37;21349;-57
2021/05/28 09:15:39;;;;;;;;;17.25;17.25;;;;;;;;3729958;37;21442;-58
2021/05/28 09:18:06;;;;;;;;;20.25;19.25;;;;;;;;3729874;38;21353;-56
2021/05/28 09:20:37;;;;;;;;;20.25;20.25;;;;;;;;3731093;37;21334;-57
2021/05/28 09:23:08;;;;;;;;;24.00;23.50;;;;;;;;3730126;38;21368;-58
2021/05/28 09:25:52;;;;;;;;;17.25;17.25;;;;;;;;3725298;37;21303;-56
2021/05/28 09:28:18;;;;;;;;;25.00;25.00;;;;;;;;3725065;38;21340;-58
2021/05/28 09:30:52;;;;;;;;;24.25;23.25;;;;;;;;3725362;37;21309;-57
2021/05/28 09:33:20;;;;;;;;;27.00;27.00;;;;;;;;3725169;37;21296;-57
2021/05/28 09:35:48;;;;;;;;;25.25;24.00;;;;;;;;3725182;38;21325;-57
2021/05/28 09:38:23;;;;;;;;;14.00;14.00;;;;;;;;3725414;38;21305;-57
2021/05/28 09:40:49;;;;;;;;;25.75;24.25;;;;;;;;3724845;38;21316;-58
2021/05/28 09:43:25;;;;;;;;;26.25;26.25;;;;;;;;3725106;38;21330;-56
2021/05/28 09:45:52;;;;;;;;;27.00;26.50;;;;;;;;3724676;37;21317;-56
2021/05/28 09:48:37;;;;;;;;;26.50;26.25;;;;;;;;3724458;38;21314;-57
2021/05/28 09:51:07;;;;;;;;;22.00;21.00;;;;;;;;3724800;37;21281;-55
2021/05/28 09:53:36;;;;;;;;;27.50;27.00;;;;;;;;3724456;37;21276;-56
2021/05/28 09:56:20;;;;;;;;;25.50;25.50;;;;;;;;3724743;37;21227;-55
2021/05/28 09:59:01;;;;;;;;;27.75;26.25;;;;;;;;3724699;38;21270;-56
2021/05/28 10:01:28;;;;;;;;;30.50;27.75;;;;;;;;3724451;38;21223;-58
2021/05/28 10:04:10;;;;;;;;;28.33;28.33;;;;;;;;3724840;37;21250;-57
2021/05/28 10:06:38;;;;;;;;;16.75;16.75;;;;;;;;3724811;38;21214;-57
2021/05/28 10:09:05;;;;;;;;;24.50;24.50;;;;;;;;3724673;38;21263;-57
2021/05/28 10:11:32;;;;;;;;;23.00;22.75;;;;;;;;3724490;37;21278;-57
2021/05/28 10:14:02;;;;;;;;;21.75;21.75;;;;;;;;3724761;38;21290;-56
2021/05/28 10:16:29;;;;;;;;;24.50;24.50;;;;;;;;3724770;37;21238;-56
2021/05/28 10:18:56;;;;;;;;;23.25;23.25;;;;;;;;3724752;37;21246;-58
2021/05/28 10:21:24;;;;;;;;;21.50;21.50;;;;;;;;3724765;37;21264;-58
2021/05/28 10:23:50;;;;;;;;;17.25;17.25;;;;;;;;3724757;37;21350;-57
2021/05/28 10:26:18;;;;;;;;;15.25;15.25;;;;;;;;3724670;38;21232;-56
2021/05/28 10:28:47;;;;;;;;;18.25;18.25;;;;;;;;3724698;38;21329;-58
2021/05/28 10:31:13;;;;;;;;;18.00;17.25;;;;;;;;3724714;38;21268;-58
2021/05/28 10:33:48;;;;;;;;;23.00;22.00;;;;;;;;3724792;38;21370;-57
2021/05/28 10:36:29;;;;;;;;;17.75;17.75;;;;;;;;3724715;37;21222;-56
2021/05/28 10:38:55;;;;;;;;;13.00;12.50;;;;;;;;3724692;38;21317;-59
2021/05/28 10:41:30;;;;;;;;;15.00;15.00;;;;;;;;3724545;37;21404;-57
2021/05/28 10:44:04;;;;;;;;;15.75;15.00;;;;;;;;3724612;37;21400;-56
2021/05/28 10:46:30;;;;;;;;;16.25;16.25;;;;;;;;3724611;37;21409;-56
2021/05/28 10:49:08;;;;;;;;;17.25;16.25;;;;;;;;3724559;37;21395;-57
2021/05/28 10:51:53;;;;;;;;;16.50;15.25;;;;;;;;3724735;37;18102;-59
2021/05/28 10:54:28;;;;;;;;;16.75;16.25;;;;;;;;3724411;38;21439;-57
2021/05/28 10:56:54;;;;;;;;;29.50;29.50;;;;;;;;3724627;38;21187;-58
2021/05/28 10:59:21;;;;;;;;;19.50;19.50;;;;;;;;3724623;37;21159;-57
2021/05/28 11:01:57;;;;;;;;;17.75;16.00;;;;;;;;3724766;38;18064;-57
2021/05/28 11:04:24;;;;;;;;;18.00;17.25;;;;;;;;3724646;38;20770;-56
2021/05/28 11:07:16;;;;;;;;;21.00;21.00;;;;;;;;3724542;37;21221;-58
2021/05/28 11:09:51;;;;;;;;;18.75;18.75;;;;;;;;3724716;37;21206;-59
2021/05/28 11:12:45;;;;;;;;;17.75;17.75;;;;;;;;3724594;37;21228;-56
2021/05/28 11:15:16;;;;;;;;;20.50;18.25;;;;;;;;3724698;37;21243;-57
2021/05/28 11:18:00;;;;;;;;;19.75;19.00;;;;;;;;3724551;37;21180;-57
2021/05/28 11:20:29;;;;;;;;;20.25;20.25;;;;;;;;3724588;38;21184;-58
2021/05/28 11:22:56;;;;;;;;;22.50;21.50;;;;;;;;3724573;38;21167;-56
2021/05/28 11:25:24;;;;;;;;;20.00;20.00;;;;;;;;3724704;37;21167;-56
2021/05/28 11:27:55;;;;;;;;;18.50;18.50;;;;;;;;3724161;38;21183;-57
2021/05/28 11:30:23;;;;;;;;;17.75;17.75;;;;;;;;3724661;37;21188;-57
2021/05/28 11:32:53;;;;;;;;;14.25;14.25;;;;;;;;3724209;38;21337;-56
2021/05/28 11:35:48;;;;;;;;;17.75;17.75;;;;;;;;3724624;37;21362;-55
2021/05/28 11:38:30;;;;;;;;;14.50;14.50;;;;;;;;3724789;38;18058;-56
2021/05/28 11:40:56;;;;;;;;;16.00;16.00;;;;;;;;3724861;37;21017;-56
2021/05/28 11:43:22;;;;;;;;;15.00;15.00;;;;;;;;3724500;38;21336;-57
2021/05/28 11:45:50;;;;;;;;;16.25;16.25;;;;;;;;3724653;37;21357;-56
2021/05/28 11:48:20;;;;;;;;;17.50;17.25;;;;;;;;3724824;37;18029;-57
2021/05/28 11:50:47;;;;;;;;;13.75;13.75;;;;;;;;3724514;38;21190;-56
2021/05/28 11:53:13;;;;;;;;;16.50;16.50;;;;;;;;3724486;38;21174;-56
2021/05/28 11:55:58;;;;;;;;;21.00;21.00;;;;;;;;3724582;37;21160;-56
2021/05/28 11:58:28;;;;;;;;;16.25;16.25;;;;;;;;3724650;37;18000;-57
2021/05/28 12:00:55;;;;;;;;;17.75;17.25;;;;;;;;3724602;38;21110;-56
2021/05/28 12:03:22;;;;;;;;;23.25;22.50;;;;;;;;3724476;37;21115;-57
2021/05/28 12:05:48;;;;;;;;;20.75;20.75;;;;;;;;3724780;37;21159;-56
2021/05/28 12:08:28;;;;;;;;;16.25;16.25;;;;;;;;3724699;38;21123;-57
2021/05/28 12:10:56;;;;;;;;;21.50;20.25;;;;;;;;3724507;38;21066;-59
2021/05/28 12:13:22;;;;;;;;;18.50;18.50;;;;;;;;3724562;38;21114;-56
2021/05/28 12:15:53;;;;;;;;;22.25;21.75;;;;;;;;3724722;37;21138;-58
2021/05/28 12:18:23;;;;;;;;;20.50;20.50;;;;;;;;3724238;38;21129;-55
2021/05/28 12:20:54;;;;;;;;;20.75;20.75;;;;;;;;3724553;37;21083;-57
2021/05/28 12:23:21;;;;;;;;;19.75;19.75;;;;;;;;3724642;37;21116;-58
2021/05/28 12:25:55;;;;;;;;;18.25;18.25;;;;;;;;3724647;38;21078;-57
2021/05/28 12:28:23;;;;;;;;;17.50;17.00;;;;;;;;3724542;38;21339;-57
2021/05/28 12:30:54;;;;;;;;;16.25;15.75;;;;;;;;3724184;37;21108;-59
2021/05/28 12:33:24;;;;;;;;;15.00;15.00;;;;;;;;3724762;37;21057;-57
2021/05/28 12:35:53;;;;;;;;;14.50;14.50;;;;;;;;3724359;38;21079;-58
2021/05/28 12:38:20;;;;;;;;;13.00;13.00;;;;;;;;3724462;38;21112;-56
2021/05/28 12:40:49;;;;;;;;;15.75;15.75;;;;;;;;3724821;38;21256;-57
2021/05/28 12:43:19;;;;;;;;;18.75;18.00;;;;;;;;3724991;38;21090;-57
2021/05/28 12:45:46;;;;;;;;;43.00;37.25;;;;;;;;3724925;37;21011;-56
2021/05/28 12:48:12;;;;;;;;;22.25;21.75;;;;;;;;3724726;38;20997;-56
2021/05/28 12:50:39;;;;;;;;;16.25;16.25;;;;;;;;3724620;38;21051;-58
2021/05/28 12:53:15;;;;;;;;;18.25;18.25;;;;;;;;3724468;38;21030;-57
2021/05/28 12:55:43;;;;;;;;;21.00;21.00;;;;;;;;3724723;38;21047;-58
2021/05/28 12:58:28;;;;;;;;;20.25;19.00;;;;;;;;3724596;37;21081;-56
2021/05/28 13:01:08;;;;;;;;;19.50;19.50;;;;;;;;3724630;38;21066;-57
2021/05/28 13:03:39;;;;;;;;;18.00;17.00;;;;;;;;3724565;37;21068;-57
2021/05/28 13:06:27;;;;;;;;;17.50;17.50;;;;;;;;3724614;38;21040;-58
2021/05/28 13:09:12;;;;;;;;;16.50;16.50;;;;;;;;3724771;37;21018;-59
2021/05/28 13:12:09;;;;;;;;;16.00;16.00;;;;;;;;3724600;38;21163;-59
2021/05/28 13:14:43;;;;;;;;;13.75;13.75;;;;;;;;3724633;37;21211;-57
2021/05/28 13:17:35;;;;;;;;;13.00;13.00;;;;;;;;3724677;37;21119;-56
2021/05/28 13:20:12;;;;;;;;;14.00;14.00;;;;;;;;3724745;37;21209;-56
2021/05/28 13:22:39;;;;;;;;;14.25;13.50;;;;;;;;3724592;38;21226;-56
2021/05/28 13:25:12;;;;;;;;;13.50;13.50;;;;;;;;3724682;38;21195;-58
2021/05/28 13:27:38;;;;;;;;;10.00;10.00;;;;;;;;3724451;38;21200;-59
2021/05/28 13:30:06;;;;;;;;;9.25;9.25;;;;;;;;3724545;37;21049;-59
2021/05/28 13:32:36;;;;;;;;;10.00;9.50;;;;;;;;3724551;37;20933;-56
2021/05/28 13:35:06;;;;;;;;;10.75;10.75;;;;;;;;3724598;37;20996;-56
2021/05/28 13:37:32;;;;;;;;;10.75;10.00;;;;;;;;3724742;37;21166;-58
2021/05/28 13:40:04;;;;;;;;;11.00;11.00;;;;;;;;3724465;37;21080;-56
2021/05/28 13:42:31;;;;;;;;;8.75;8.75;;;;;;;;3724648;37;17867;-56
2021/05/28 13:44:58;;;;;;;;;12.25;12.25;;;;;;;;3724490;37;21057;-56
2021/05/28 13:47:25;;;;;;;;;10.00;10.00;;;;;;;;3724473;38;21166;-56
2021/05/28 13:49:52;;;;;;;;;50.75;43.75;;;;;;;;3724658;37;21134;-56
2021/05/28 13:52:18;;;;;;;;;11.25;10.75;;;;;;;;3724610;37;21028;-56
2021/05/28 13:54:45;;;;;;;;;10.00;10.00;;;;;;;;3724695;37;21138;-56
2021/05/28 13:57:11;;;;;;;;;7.25;7.25;;;;;;;;3724528;38;21045;-57
2021/05/28 13:59:37;;;;;;;;;7.50;7.50;;;;;;;;3724616;38;20966;-55
2021/05/28 14:02:05;;;;;;;;;7.25;7.25;;;;;;;;3724811;37;17855;-58
2021/05/28 14:04:32;;;;;;;;;38.25;34.75;;;;;;;;3724797;38;17852;-58
2021/05/28 14:07:00;;;;;;;;;13.00;13.00;;;;;;;;3724646;38;21023;-54
2021/05/28 14:09:26;;;;;;;;;224.00;213.20;;;;;;;;3724494;37;21132;-59
2021/05/28 14:12:01;;;;;;;;;173.25;163.25;;;;;;;;3724673;38;17846;-55
2021/05/28 14:14:27;;;;;;;;;375.83;338.33;;;;;;;;3724500;37;17836;-56
2021/05/28 14:16:53;;;;;;;;;13.25;12.50;;;;;;;;3724777;37;17827;-56
2021/05/28 14:19:19;;;;;;;;;57.00;47.00;;;;;;;;3724647;37;17838;-58
2021/05/28 14:21:45;;;;;;;;;83.25;81.50;;;;;;;;3724527;38;21008;-58
2021/05/28 14:24:11;;;;;;;;;42.00;37.25;;;;;;;;3724583;38;17803;-58
2021/05/28 14:26:37;;;;;;;;;9.00;9.00;;;;;;;;3724515;37;20982;-57